TAF Text Data
IDs:
Format:
Raw Decoded Include METAR

Data at: 0017 UTC 14 May 2021

KMRB 132320Z 1400/1424 01007KT P6SM FEW120
  FM140300 00000KT P6SM FEW080
  FM141600 02005KT P6SM SCT060